sensor_id;sensor_type;location;lat;lon;timestamp;P1;durP1;ratioP1;P2;durP2;ratioP2
44516;SDS011;30223;17.182;-96.766;2023-10-31T00:01:36;2.15;;;1.77;;
44516;SDS011;30223;17.182;-96.766;2023-10-31T00:04:03;1.75;;;1.65;;
44516;SDS011;30223;17.182;-96.766;2023-10-31T00:06:29;1.95;;;1.60;;
44516;SDS011;30223;17.182;-96.766;2023-10-31T00:08:56;2.83;;;1.55;;
44516;SDS011;30223;17.182;-96.766;2023-10-31T00:11:22;2.05;;;1.67;;
44516;SDS011;30223;17.182;-96.766;2023-10-31T00:13:49;2.28;;;1.95;;
44516;SDS011;30223;17.182;-96.766;2023-10-31T00:16:15;1.83;;;1.58;;
44516;SDS011;30223;17.182;-96.766;2023-10-31T00:18:42;2.00;;;1.80;;
44516;SDS011;30223;17.182;-96.766;2023-10-31T00:21:09;1.58;;;1.48;;
44516;SDS011;30223;17.182;-96.766;2023-10-31T00:23:42;1.92;;;1.65;;
44516;SDS011;30223;17.182;-96.766;2023-10-31T00:26:12;1.67;;;1.58;;
44516;SDS011;30223;17.182;-96.766;2023-10-31T00:28:39;2.88;;;1.85;;
44516;SDS011;30223;17.182;-96.766;2023-10-31T00:31:06;1.85;;;1.35;;
44516;SDS011;30223;17.182;-96.766;2023-10-31T00:33:36;2.30;;;1.38;;
44516;SDS011;30223;17.182;-96.766;2023-10-31T00:36:03;1.67;;;1.30;;
44516;SDS011;30223;17.182;-96.766;2023-10-31T00:38:30;1.20;;;1.10;;
44516;SDS011;30223;17.182;-96.766;2023-10-31T00:40:57;1.00;;;0.90;;
44516;SDS011;30223;17.182;-96.766;2023-10-31T00:43:23;1.40;;;1.30;;
44516;SDS011;30223;17.182;-96.766;2023-10-31T00:45:50;3.28;;;1.48;;
44516;SDS011;30223;17.182;-96.766;2023-10-31T00:48:16;1.83;;;1.50;;
44516;SDS011;30223;17.182;-96.766;2023-10-31T00:50:44;2.35;;;1.52;;
44516;SDS011;30223;17.182;-96.766;2023-10-31T00:53:11;3.75;;;1.88;;
44516;SDS011;30223;17.182;-96.766;2023-10-31T00:55:40;1.55;;;1.45;;
44516;SDS011;30223;17.182;-96.766;2023-10-31T00:58:06;2.13;;;1.80;;
44516;SDS011;30223;17.182;-96.766;2023-10-31T01:00:33;1.50;;;1.40;;
44516;SDS011;30223;17.182;-96.766;2023-10-31T01:02:59;1.88;;;1.60;;
44516;SDS011;30223;17.182;-96.766;2023-10-31T01:05:26;4.05;;;3.10;;
44516;SDS011;30223;17.182;-96.766;2023-10-31T01:07:53;5.07;;;3.22;;
44516;SDS011;30223;17.182;-96.766;2023-10-31T01:10:21;7.05;;;5.13;;
44516;SDS011;30223;17.182;-96.766;2023-10-31T01:12:48;8.45;;;4.80;;
44516;SDS011;30223;17.182;-96.766;2023-10-31T01:15:14;4.90;;;4.10;;
44516;SDS011;30223;17.182;-96.766;2023-10-31T01:17:41;5.28;;;3.90;;
44516;SDS011;30223;17.182;-96.766;2023-10-31T01:20:07;7.13;;;4.82;;
44516;SDS011;30223;17.182;-96.766;2023-10-31T01:22:35;4.60;;;2.28;;
44516;SDS011;30223;17.182;-96.766;2023-10-31T01:25:02;3.88;;;2.70;;
44516;SDS011;30223;17.182;-96.766;2023-10-31T01:27:28;1.70;;;1.48;;
44516;SDS011;30223;17.182;-96.766;2023-10-31T01:29:55;4.32;;;1.90;;
44516;SDS011;30223;17.182;-96.766;2023-10-31T01:32:22;2.20;;;2.00;;
44516;SDS011;30223;17.182;-96.766;2023-10-31T01:34:48;2.47;;;1.80;;
44516;SDS011;30223;17.182;-96.766;2023-10-31T01:37:15;3.10;;;2.22;;
44516;SDS011;30223;17.182;-96.766;2023-10-31T01:42:13;1.67;;;0.95;;
44516;SDS011;30223;17.182;-96.766;2023-10-31T01:44:40;2.42;;;1.55;;
44516;SDS011;30223;17.182;-96.766;2023-10-31T01:47:07;3.13;;;1.25;;
44516;SDS011;30223;17.182;-96.766;2023-10-31T01:49:35;1.95;;;1.30;;
44516;SDS011;30223;17.182;-96.766;2023-10-31T01:52:05;1.23;;;1.13;;
44516;SDS011;30223;17.182;-96.766;2023-10-31T01:54:33;1.40;;;1.30;;
44516;SDS011;30223;17.182;-96.766;2023-10-31T01:57:01;1.73;;;1.05;;
44516;SDS011;30223;17.182;-96.766;2023-10-31T01:59:30;1.08;;;0.90;;
44516;SDS011;30223;17.182;-96.766;2023-10-31T02:01:57;2.45;;;1.55;;
44516;SDS011;30223;17.182;-96.766;2023-10-31T02:04:24;3.40;;;1.23;;
44516;SDS011;30223;17.182;-96.766;2023-10-31T02:06:51;1.83;;;1.42;;
44516;SDS011;30223;17.182;-96.766;2023-10-31T02:09:17;1.23;;;1.15;;
44516;SDS011;30223;17.182;-96.766;2023-10-31T02:11:44;2.65;;;1.42;;
44516;SDS011;30223;17.182;-96.766;2023-10-31T02:14:10;1.58;;;1.20;;
44516;SDS011;30223;17.182;-96.766;2023-10-31T02:16:37;1.58;;;1.25;;
44516;SDS011;30223;17.182;-96.766;2023-10-31T02:19:04;1.40;;;0.93;;
44516;SDS011;30223;17.182;-96.766;2023-10-31T02:21:32;1.45;;;0.85;;
44516;SDS011;30223;17.182;-96.766;2023-10-31T02:23:59;1.65;;;0.80;;
44516;SDS011;30223;17.182;-96.766;2023-10-31T02:26:28;3.13;;;0.90;;
44516;SDS011;30223;17.182;-96.766;2023-10-31T02:28:56;1.55;;;0.80;;
44516;SDS011;30223;17.182;-96.766;2023-10-31T02:31:23;1.52;;;0.90;;
44516;SDS011;30223;17.182;-96.766;2023-10-31T02:33:49;0.70;;;0.70;;
44516;SDS011;30223;17.182;-96.766;2023-10-31T02:36:16;0.82;;;0.82;;
44516;SDS011;30223;17.182;-96.766;2023-10-31T02:38:43;0.70;;;0.70;;
44516;SDS011;30223;17.182;-96.766;2023-10-31T02:41:10;1.08;;;1.05;;
44516;SDS011;30223;17.182;-96.766;2023-10-31T02:43:37;0.55;;;0.55;;
44516;SDS011;30223;17.182;-96.766;2023-10-31T02:46:04;1.00;;;0.63;;
44516;SDS011;30223;17.182;-96.766;2023-10-31T02:48:31;0.82;;;0.82;;
44516;SDS011;30223;17.182;-96.766;2023-10-31T02:51:04;1.23;;;0.60;;
44516;SDS011;30223;17.182;-96.766;2023-10-31T02:53:31;0.68;;;0.68;;
44516;SDS011;30223;17.182;-96.766;2023-10-31T02:55:57;1.02;;;0.88;;
44516;SDS011;30223;17.182;-96.766;2023-10-31T02:58:24;0.52;;;0.50;;
44516;SDS011;30223;17.182;-96.766;2023-10-31T03:00:50;0.52;;;0.52;;
44516;SDS011;30223;17.182;-96.766;2023-10-31T03:03:17;0.65;;;0.50;;
44516;SDS011;30223;17.182;-96.766;2023-10-31T03:05:43;0.55;;;0.55;;
44516;SDS011;30223;17.182;-96.766;2023-10-31T03:08:10;0.65;;;0.60;;
44516;SDS011;30223;17.182;-96.766;2023-10-31T03:10:41;0.50;;;0.50;;
44516;SDS011;30223;17.182;-96.766;2023-10-31T03:13:07;0.98;;;0.60;;
44516;SDS011;30223;17.182;-96.766;2023-10-31T03:15:34;0.50;;;0.50;;
44516;SDS011;30223;17.182;-96.766;2023-10-31T03:18:00;0.52;;;0.52;;
44516;SDS011;30223;17.182;-96.766;2023-10-31T03:20:27;1.00;;;0.70;;
44516;SDS011;30223;17.182;-96.766;2023-10-31T03:22:54;0.60;;;0.60;;
44516;SDS011;30223;17.182;-96.766;2023-10-31T03:25:21;0.50;;;0.50;;
44516;SDS011;30223;17.182;-96.766;2023-10-31T03:27:47;4.03;;;1.20;;
44516;SDS011;30223;17.182;-96.766;2023-10-31T03:30:14;0.50;;;0.50;;
44516;SDS011;30223;17.182;-96.766;2023-10-31T03:32:40;1.35;;;0.50;;
44516;SDS011;30223;17.182;-96.766;2023-10-31T03:35:07;0.85;;;0.65;;
44516;SDS011;30223;17.182;-96.766;2023-10-31T03:37:34;0.50;;;0.50;;
44516;SDS011;30223;17.182;-96.766;2023-10-31T03:40:05;0.70;;;0.70;;
44516;SDS011;30223;17.182;-96.766;2023-10-31T03:42:33;0.85;;;0.60;;
44516;SDS011;30223;17.182;-96.766;2023-10-31T03:45:00;0.70;;;0.60;;
44516;SDS011;30223;17.182;-96.766;2023-10-31T03:47:27;3.25;;;0.60;;
44516;SDS011;30223;17.182;-96.766;2023-10-31T03:49:54;0.50;;;0.50;;
44516;SDS011;30223;17.182;-96.766;2023-10-31T03:52:20;2.00;;;0.60;;
44516;SDS011;30223;17.182;-96.766;2023-10-31T03:54:47;0.60;;;0.60;;
44516;SDS011;30223;17.182;-96.766;2023-10-31T03:57:14;0.90;;;0.90;;
44516;SDS011;30223;17.182;-96.766;2023-10-31T03:59:41;1.08;;;0.98;;
44516;SDS011;30223;17.182;-96.766;2023-10-31T04:02:07;0.55;;;0.55;;
44516;SDS011;30223;17.182;-96.766;2023-10-31T04:04:34;0.85;;;0.65;;
44516;SDS011;30223;17.182;-96.766;2023-10-31T04:07:01;0.98;;;0.80;;
44516;SDS011;30223;17.182;-96.766;2023-10-31T04:09:28;0.88;;;0.68;;
44516;SDS011;30223;17.182;-96.766;2023-10-31T04:11:54;0.73;;;0.70;;
44516;SDS011;30223;17.182;-96.766;2023-10-31T04:14:21;0.88;;;0.55;;
44516;SDS011;30223;17.182;-96.766;2023-10-31T04:16:48;0.50;;;0.50;;
44516;SDS011;30223;17.182;-96.766;2023-10-31T04:19:15;1.15;;;0.73;;
44516;SDS011;30223;17.182;-96.766;2023-10-31T04:21:41;0.50;;;0.50;;
44516;SDS011;30223;17.182;-96.766;2023-10-31T04:24:08;0.90;;;0.90;;
44516;SDS011;30223;17.182;-96.766;2023-10-31T04:26:34;2.05;;;0.60;;
44516;SDS011;30223;17.182;-96.766;2023-10-31T04:29:01;0.90;;;0.80;;
44516;SDS011;30223;17.182;-96.766;2023-10-31T04:31:27;0.60;;;0.60;;
44516;SDS011;30223;17.182;-96.766;2023-10-31T04:33:54;0.65;;;0.50;;
44516;SDS011;30223;17.182;-96.766;2023-10-31T04:36:20;0.68;;;0.68;;
44516;SDS011;30223;17.182;-96.766;2023-10-31T04:38:47;0.70;;;0.60;;
44516;SDS011;30223;17.182;-96.766;2023-10-31T04:41:13;1.17;;;0.68;;
44516;SDS011;30223;17.182;-96.766;2023-10-31T04:43:40;0.60;;;0.60;;
44516;SDS011;30223;17.182;-96.766;2023-10-31T04:46:07;0.60;;;0.60;;
44516;SDS011;30223;17.182;-96.766;2023-10-31T04:48:33;1.88;;;0.80;;
44516;SDS011;30223;17.182;-96.766;2023-10-31T04:51:00;2.92;;;0.70;;
44516;SDS011;30223;17.182;-96.766;2023-10-31T04:53:26;0.60;;;0.55;;
44516;SDS011;30223;17.182;-96.766;2023-10-31T04:55:53;1.10;;;0.70;;
44516;SDS011;30223;17.182;-96.766;2023-10-31T04:58:20;1.10;;;0.80;;
44516;SDS011;30223;17.182;-96.766;2023-10-31T05:00:46;1.10;;;0.60;;
44516;SDS011;30223;17.182;-96.766;2023-10-31T05:03:13;0.75;;;0.73;;
44516;SDS011;30223;17.182;-96.766;2023-10-31T05:05:40;1.05;;;0.73;;
44516;SDS011;30223;17.182;-96.766;2023-10-31T05:08:06;1.13;;;0.75;;
44516;SDS011;30223;17.182;-96.766;2023-10-31T05:10:33;0.65;;;0.65;;
44516;SDS011;30223;17.182;-96.766;2023-10-31T05:13:00;1.75;;;0.77;;
44516;SDS011;30223;17.182;-96.766;2023-10-31T05:15:30;0.50;;;0.50;;
44516;SDS011;30223;17.182;-96.766;2023-10-31T05:17:57;0.65;;;0.57;;
44516;SDS011;30223;17.182;-96.766;2023-10-31T05:20:23;1.52;;;0.70;;
44516;SDS011;30223;17.182;-96.766;2023-10-31T05:22:50;0.73;;;0.70;;
44516;SDS011;30223;17.182;-96.766;2023-10-31T05:25:17;1.58;;;1.48;;
44516;SDS011;30223;17.182;-96.766;2023-10-31T05:27:44;1.05;;;0.88;;
44516;SDS011;30223;17.182;-96.766;2023-10-31T05:30:12;0.93;;;0.75;;
44516;SDS011;30223;17.182;-96.766;2023-10-31T05:32:39;2.33;;;0.93;;
44516;SDS011;30223;17.182;-96.766;2023-10-31T05:35:06;0.77;;;0.77;;
44516;SDS011;30223;17.182;-96.766;2023-10-31T05:37:33;1.33;;;0.80;;
44516;SDS011;30223;17.182;-96.766;2023-10-31T05:39:59;1.13;;;0.88;;
44516;SDS011;30223;17.182;-96.766;2023-10-31T05:42:26;1.60;;;0.70;;
44516;SDS011;30223;17.182;-96.766;2023-10-31T05:44:54;0.80;;;0.70;;
44516;SDS011;30223;17.182;-96.766;2023-10-31T05:47:22;1.25;;;0.82;;
44516;SDS011;30223;17.182;-96.766;2023-10-31T05:49:49;0.60;;;0.60;;
44516;SDS011;30223;17.182;-96.766;2023-10-31T05:52:15;2.05;;;1.30;;
44516;SDS011;30223;17.182;-96.766;2023-10-31T05:54:42;1.38;;;0.95;;
44516;SDS011;30223;17.182;-96.766;2023-10-31T05:57:08;0.90;;;0.80;;
44516;SDS011;30223;17.182;-96.766;2023-10-31T05:59:35;1.98;;;0.80;;
44516;SDS011;30223;17.182;-96.766;2023-10-31T06:02:01;0.95;;;0.75;;
44516;SDS011;30223;17.182;-96.766;2023-10-31T06:04:28;1.02;;;0.85;;
44516;SDS011;30223;17.182;-96.766;2023-10-31T06:06:54;3.30;;;1.00;;
44516;SDS011;30223;17.182;-96.766;2023-10-31T06:09:21;1.25;;;0.70;;
44516;SDS011;30223;17.182;-96.766;2023-10-31T06:11:47;0.75;;;0.70;;
44516;SDS011;30223;17.182;-96.766;2023-10-31T06:14:14;2.13;;;1.20;;
44516;SDS011;30223;17.182;-96.766;2023-10-31T06:16:41;1.50;;;0.88;;
44516;SDS011;30223;17.182;-96.766;2023-10-31T06:19:08;1.23;;;0.88;;
44516;SDS011;30223;17.182;-96.766;2023-10-31T06:21:35;1.30;;;0.80;;
44516;SDS011;30223;17.182;-96.766;2023-10-31T06:24:02;0.80;;;0.80;;
44516;SDS011;30223;17.182;-96.766;2023-10-31T06:26:29;1.33;;;0.90;;
44516;SDS011;30223;17.182;-96.766;2023-10-31T06:28:56;1.10;;;0.73;;
44516;SDS011;30223;17.182;-96.766;2023-10-31T06:31:23;2.45;;;0.63;;
44516;SDS011;30223;17.182;-96.766;2023-10-31T06:33:49;0.63;;;0.63;;
44516;SDS011;30223;17.182;-96.766;2023-10-31T06:36:16;0.60;;;0.60;;
44516;SDS011;30223;17.182;-96.766;2023-10-31T06:38:42;1.10;;;0.68;;
44516;SDS011;30223;17.182;-96.766;2023-10-31T06:41:09;0.93;;;0.77;;
44516;SDS011;30223;17.182;-96.766;2023-10-31T06:43:36;0.70;;;0.70;;
44516;SDS011;30223;17.182;-96.766;2023-10-31T06:46:02;1.08;;;0.93;;
44516;SDS011;30223;17.182;-96.766;2023-10-31T06:48:30;0.70;;;0.65;;
44516;SDS011;30223;17.182;-96.766;2023-10-31T06:50:57;1.05;;;0.85;;
44516;SDS011;30223;17.182;-96.766;2023-10-31T06:53:23;0.93;;;0.88;;
44516;SDS011;30223;17.182;-96.766;2023-10-31T06:55:50;1.52;;;0.70;;
44516;SDS011;30223;17.182;-96.766;2023-10-31T06:58:16;0.75;;;0.75;;
44516;SDS011;30223;17.182;-96.766;2023-10-31T07:00:43;1.25;;;0.70;;
44516;SDS011;30223;17.182;-96.766;2023-10-31T07:03:10;1.33;;;0.90;;
44516;SDS011;30223;17.182;-96.766;2023-10-31T07:05:40;0.93;;;0.50;;
44516;SDS011;30223;17.182;-96.766;2023-10-31T07:08:07;0.73;;;0.70;;
44516;SDS011;30223;17.182;-96.766;2023-10-31T07:10:34;1.65;;;1.00;;
44516;SDS011;30223;17.182;-96.766;2023-10-31T07:13:00;0.60;;;0.57;;
44516;SDS011;30223;17.182;-96.766;2023-10-31T07:15:27;1.25;;;0.95;;
44516;SDS011;30223;17.182;-96.766;2023-10-31T07:17:54;0.70;;;0.60;;
44516;SDS011;30223;17.182;-96.766;2023-10-31T07:20:20;0.82;;;0.60;;
44516;SDS011;30223;17.182;-96.766;2023-10-31T07:22:47;0.80;;;0.80;;
44516;SDS011;30223;17.182;-96.766;2023-10-31T07:25:13;0.77;;;0.65;;
44516;SDS011;30223;17.182;-96.766;2023-10-31T07:27:40;1.58;;;0.60;;
44516;SDS011;30223;17.182;-96.766;2023-10-31T07:30:07;0.80;;;0.68;;
44516;SDS011;30223;17.182;-96.766;2023-10-31T07:32:34;0.98;;;0.98;;
44516;SDS011;30223;17.182;-96.766;2023-10-31T07:35:01;0.40;;;0.40;;
44516;SDS011;30223;17.182;-96.766;2023-10-31T07:37:28;1.35;;;0.45;;
44516;SDS011;30223;17.182;-96.766;2023-10-31T07:39:54;0.55;;;0.55;;
44516;SDS011;30223;17.182;-96.766;2023-10-31T07:42:21;0.68;;;0.68;;
44516;SDS011;30223;17.182;-96.766;2023-10-31T07:44:47;0.60;;;0.60;;
44516;SDS011;30223;17.182;-96.766;2023-10-31T07:47:15;0.60;;;0.55;;
44516;SDS011;30223;17.182;-96.766;2023-10-31T07:49:42;0.98;;;0.70;;
44516;SDS011;30223;17.182;-96.766;2023-10-31T07:52:09;0.50;;;0.50;;
44516;SDS011;30223;17.182;-96.766;2023-10-31T07:54:38;3.05;;;0.60;;
44516;SDS011;30223;17.182;-96.766;2023-10-31T07:57:08;0.77;;;0.70;;
44516;SDS011;30223;17.182;-96.766;2023-10-31T07:59:35;0.60;;;0.60;;
44516;SDS011;30223;17.182;-96.766;2023-10-31T08:02:02;0.50;;;0.50;;
44516;SDS011;30223;17.182;-96.766;2023-10-31T08:04:29;0.50;;;0.43;;
44516;SDS011;30223;17.182;-96.766;2023-10-31T08:06:55;0.38;;;0.38;;
44516;SDS011;30223;17.182;-96.766;2023-10-31T08:09:22;1.88;;;0.70;;
44516;SDS011;30223;17.182;-96.766;2023-10-31T08:11:49;0.60;;;0.50;;
44516;SDS011;30223;17.182;-96.766;2023-10-31T08:14:16;0.50;;;0.50;;
44516;SDS011;30223;17.182;-96.766;2023-10-31T08:16:43;0.60;;;0.60;;
44516;SDS011;30223;17.182;-96.766;2023-10-31T08:19:10;0.52;;;0.52;;
44516;SDS011;30223;17.182;-96.766;2023-10-31T08:21:37;0.50;;;0.50;;
44516;SDS011;30223;17.182;-96.766;2023-10-31T08:24:05;0.40;;;0.40;;
44516;SDS011;30223;17.182;-96.766;2023-10-31T08:26:32;0.47;;;0.47;;
44516;SDS011;30223;17.182;-96.766;2023-10-31T08:28:59;0.70;;;0.65;;
44516;SDS011;30223;17.182;-96.766;2023-10-31T08:31:26;0.50;;;0.50;;
44516;SDS011;30223;17.182;-96.766;2023-10-31T08:33:52;0.70;;;0.50;;
44516;SDS011;30223;17.182;-96.766;2023-10-31T08:36:19;0.50;;;0.50;;
44516;SDS011;30223;17.182;-96.766;2023-10-31T08:38:46;0.50;;;0.50;;
44516;SDS011;30223;17.182;-96.766;2023-10-31T08:41:14;0.65;;;0.43;;
44516;SDS011;30223;17.182;-96.766;2023-10-31T08:43:45;0.60;;;0.60;;
44516;SDS011;30223;17.182;-96.766;2023-10-31T08:46:12;0.98;;;0.98;;
44516;SDS011;30223;17.182;-96.766;2023-10-31T08:48:39;0.40;;;0.40;;
44516;SDS011;30223;17.182;-96.766;2023-10-31T08:51:05;0.50;;;0.50;;
44516;SDS011;30223;17.182;-96.766;2023-10-31T08:53:32;0.77;;;0.60;;
44516;SDS011;30223;17.182;-96.766;2023-10-31T08:55:58;0.40;;;0.40;;
44516;SDS011;30223;17.182;-96.766;2023-10-31T08:58:25;0.60;;;0.50;;
44516;SDS011;30223;17.182;-96.766;2023-10-31T09:00:54;0.50;;;0.50;;
44516;SDS011;30223;17.182;-96.766;2023-10-31T09:03:21;0.95;;;0.60;;
44516;SDS011;30223;17.182;-96.766;2023-10-31T09:05:47;0.50;;;0.50;;
44516;SDS011;30223;17.182;-96.766;2023-10-31T09:08:14;0.50;;;0.50;;
44516;SDS011;30223;17.182;-96.766;2023-10-31T09:10:40;0.60;;;0.50;;
44516;SDS011;30223;17.182;-96.766;2023-10-31T09:13:08;0.35;;;0.35;;
44516;SDS011;30223;17.182;-96.766;2023-10-31T09:15:35;0.45;;;0.45;;
44516;SDS011;30223;17.182;-96.766;2023-10-31T09:18:02;0.80;;;0.63;;
44516;SDS011;30223;17.182;-96.766;2023-10-31T09:20:29;0.43;;;0.40;;
44516;SDS011;30223;17.182;-96.766;2023-10-31T09:22:55;1.00;;;0.60;;
44516;SDS011;30223;17.182;-96.766;2023-10-31T09:25:22;0.60;;;0.60;;
44516;SDS011;30223;17.182;-96.766;2023-10-31T09:27:49;0.50;;;0.50;;
44516;SDS011;30223;17.182;-96.766;2023-10-31T09:30:15;0.55;;;0.50;;
44516;SDS011;30223;17.182;-96.766;2023-10-31T09:32:42;0.47;;;0.47;;
44516;SDS011;30223;17.182;-96.766;2023-10-31T09:35:08;0.50;;;0.50;;
44516;SDS011;30223;17.182;-96.766;2023-10-31T09:37:35;0.45;;;0.45;;
44516;SDS011;30223;17.182;-96.766;2023-10-31T09:40:01;0.68;;;0.60;;
44516;SDS011;30223;17.182;-96.766;2023-10-31T09:42:28;0.68;;;0.60;;
44516;SDS011;30223;17.182;-96.766;2023-10-31T09:44:55;0.63;;;0.40;;
44516;SDS011;30223;17.182;-96.766;2023-10-31T09:47:21;0.30;;;0.30;;
44516;SDS011;30223;17.182;-96.766;2023-10-31T09:49:48;0.65;;;0.40;;
44516;SDS011;30223;17.182;-96.766;2023-10-31T09:52:15;0.43;;;0.43;;
44516;SDS011;30223;17.182;-96.766;2023-10-31T09:54:45;0.95;;;0.50;;
44516;SDS011;30223;17.182;-96.766;2023-10-31T09:57:15;0.60;;;0.60;;
44516;SDS011;30223;17.182;-96.766;2023-10-31T09:59:43;0.50;;;0.50;;
44516;SDS011;30223;17.182;-96.766;2023-10-31T10:02:09;0.50;;;0.50;;
44516;SDS011;30223;17.182;-96.766;2023-10-31T10:04:37;0.40;;;0.40;;
44516;SDS011;30223;17.182;-96.766;2023-10-31T10:07:04;0.50;;;0.50;;
44516;SDS011;30223;17.182;-96.766;2023-10-31T10:09:31;0.40;;;0.40;;
44516;SDS011;30223;17.182;-96.766;2023-10-31T10:12:00;0.50;;;0.50;;
44516;SDS011;30223;17.182;-96.766;2023-10-31T10:14:27;0.40;;;0.40;;
44516;SDS011;30223;17.182;-96.766;2023-10-31T10:16:57;0.40;;;0.40;;
44516;SDS011;30223;17.182;-96.766;2023-10-31T10:19:23;0.50;;;0.40;;
44516;SDS011;30223;17.182;-96.766;2023-10-31T10:21:52;0.60;;;0.50;;
44516;SDS011;30223;17.182;-96.766;2023-10-31T10:24:25;0.45;;;0.43;;
44516;SDS011;30223;17.182;-96.766;2023-10-31T10:26:58;0.85;;;0.50;;
44516;SDS011;30223;17.182;-96.766;2023-10-31T10:29:24;0.43;;;0.43;;
44516;SDS011;30223;17.182;-96.766;2023-10-31T10:31:51;0.30;;;0.30;;
44516;SDS011;30223;17.182;-96.766;2023-10-31T10:34:19;0.50;;;0.50;;
44516;SDS011;30223;17.182;-96.766;2023-10-31T10:36:48;0.30;;;0.30;;
44516;SDS011;30223;17.182;-96.766;2023-10-31T10:39:18;0.50;;;0.47;;
44516;SDS011;30223;17.182;-96.766;2023-10-31T10:41:55;0.65;;;0.47;;
44516;SDS011;30223;17.182;-96.766;2023-10-31T10:44:33;0.30;;;0.30;;
44516;SDS011;30223;17.182;-96.766;2023-10-31T10:47:04;0.75;;;0.45;;
44516;SDS011;30223;17.182;-96.766;2023-10-31T10:49:33;0.40;;;0.40;;
44516;SDS011;30223;17.182;-96.766;2023-10-31T10:54:37;0.65;;;0.50;;
44516;SDS011;30223;17.182;-96.766;2023-10-31T11:00:01;0.40;;;0.40;;
44516;SDS011;30223;17.182;-96.766;2023-10-31T11:02:33;1.67;;;0.50;;
44516;SDS011;30223;17.182;-96.766;2023-10-31T11:05:07;0.40;;;0.40;;
44516;SDS011;30223;17.182;-96.766;2023-10-31T11:07:34;1.10;;;0.50;;
44516;SDS011;30223;17.182;-96.766;2023-10-31T11:10:02;0.40;;;0.40;;
44516;SDS011;30223;17.182;-96.766;2023-10-31T11:12:30;0.40;;;0.40;;
44516;SDS011;30223;17.182;-96.766;2023-10-31T11:14:58;0.40;;;0.40;;
44516;SDS011;30223;17.182;-96.766;2023-10-31T11:17:28;0.30;;;0.30;;
44516;SDS011;30223;17.182;-96.766;2023-10-31T11:19:59;0.40;;;0.40;;
44516;SDS011;30223;17.182;-96.766;2023-10-31T11:22:40;0.50;;;0.50;;
44516;SDS011;30223;17.182;-96.766;2023-10-31T11:25:17;0.80;;;0.47;;
44516;SDS011;30223;17.182;-96.766;2023-10-31T11:27:51;1.17;;;0.45;;
44516;SDS011;30223;17.182;-96.766;2023-10-31T11:30:22;0.30;;;0.30;;
44516;SDS011;30223;17.182;-96.766;2023-10-31T11:32:58;0.70;;;0.50;;
44516;SDS011;30223;17.182;-96.766;2023-10-31T11:35:28;0.50;;;0.40;;
44516;SDS011;30223;17.182;-96.766;2023-10-31T11:38:02;0.55;;;0.55;;
44516;SDS011;30223;17.182;-96.766;2023-10-31T11:40:32;0.50;;;0.50;;
44516;SDS011;30223;17.182;-96.766;2023-10-31T11:43:00;0.30;;;0.30;;
44516;SDS011;30223;17.182;-96.766;2023-10-31T11:48:02;0.30;;;0.30;;
44516;SDS011;30223;17.182;-96.766;2023-10-31T11:50:33;1.58;;;0.40;;
44516;SDS011;30223;17.182;-96.766;2023-10-31T11:53:05;0.60;;;0.60;;
44516;SDS011;30223;17.182;-96.766;2023-10-31T11:55:38;0.32;;;0.32;;
44516;SDS011;30223;17.182;-96.766;2023-10-31T11:58:12;0.60;;;0.60;;
44516;SDS011;30223;17.182;-96.766;2023-10-31T12:00:44;0.50;;;0.50;;
44516;SDS011;30223;17.182;-96.766;2023-10-31T12:03:11;0.38;;;0.38;;
44516;SDS011;30223;17.182;-96.766;2023-10-31T12:05:38;0.35;;;0.30;;
44516;SDS011;30223;17.182;-96.766;2023-10-31T12:08:05;0.82;;;0.40;;
44516;SDS011;30223;17.182;-96.766;2023-10-31T12:10:31;0.47;;;0.47;;
44516;SDS011;30223;17.182;-96.766;2023-10-31T12:12:58;0.40;;;0.40;;
44516;SDS011;30223;17.182;-96.766;2023-10-31T12:15:25;0.60;;;0.60;;
44516;SDS011;30223;17.182;-96.766;2023-10-31T12:17:52;0.40;;;0.40;;
44516;SDS011;30223;17.182;-96.766;2023-10-31T12:20:23;0.85;;;0.85;;
44516;SDS011;30223;17.182;-96.766;2023-10-31T12:23:00;0.50;;;0.50;;
44516;SDS011;30223;17.182;-96.766;2023-10-31T12:25:30;0.40;;;0.40;;
44516;SDS011;30223;17.182;-96.766;2023-10-31T12:28:00;0.43;;;0.43;;
44516;SDS011;30223;17.182;-96.766;2023-10-31T12:30:27;0.85;;;0.40;;
44516;SDS011;30223;17.182;-96.766;2023-10-31T12:32:54;0.50;;;0.50;;
44516;SDS011;30223;17.182;-96.766;2023-10-31T12:35:23;0.43;;;0.43;;
44516;SDS011;30223;17.182;-96.766;2023-10-31T12:40:19;0.98;;;0.60;;
44516;SDS011;30223;17.182;-96.766;2023-10-31T12:42:47;0.40;;;0.40;;
44516;SDS011;30223;17.182;-96.766;2023-10-31T12:45:16;0.50;;;0.50;;
44516;SDS011;30223;17.182;-96.766;2023-10-31T12:47:44;0.50;;;0.50;;
44516;SDS011;30223;17.182;-96.766;2023-10-31T12:50:14;0.30;;;0.30;;
44516;SDS011;30223;17.182;-96.766;2023-10-31T12:52:51;0.30;;;0.30;;
44516;SDS011;30223;17.182;-96.766;2023-10-31T12:55:20;0.63;;;0.50;;
44516;SDS011;30223;17.182;-96.766;2023-10-31T12:57:48;0.50;;;0.50;;
44516;SDS011;30223;17.182;-96.766;2023-10-31T13:00:17;0.50;;;0.50;;
44516;SDS011;30223;17.182;-96.766;2023-10-31T13:02:59;0.95;;;0.40;;
44516;SDS011;30223;17.182;-96.766;2023-10-31T13:05:30;0.43;;;0.43;;
44516;SDS011;30223;17.182;-96.766;2023-10-31T13:07:58;0.40;;;0.40;;
44516;SDS011;30223;17.182;-96.766;2023-10-31T13:10:26;0.40;;;0.40;;
44516;SDS011;30223;17.182;-96.766;2023-10-31T13:12:59;0.30;;;0.30;;
44516;SDS011;30223;17.182;-96.766;2023-10-31T13:15:25;1.08;;;0.40;;
44516;SDS011;30223;17.182;-96.766;2023-10-31T13:17:52;0.40;;;0.40;;
44516;SDS011;30223;17.182;-96.766;2023-10-31T13:20:19;0.35;;;0.35;;
44516;SDS011;30223;17.182;-96.766;2023-10-31T13:22:47;0.60;;;0.40;;
44516;SDS011;30223;17.182;-96.766;2023-10-31T13:25:15;0.50;;;0.40;;
44516;SDS011;30223;17.182;-96.766;2023-10-31T13:27:43;0.40;;;0.40;;
44516;SDS011;30223;17.182;-96.766;2023-10-31T13:30:10;0.40;;;0.40;;
44516;SDS011;30223;17.182;-96.766;2023-10-31T13:32:39;0.88;;;0.52;;
44516;SDS011;30223;17.182;-96.766;2023-10-31T13:35:06;0.40;;;0.40;;
44516;SDS011;30223;17.182;-96.766;2023-10-31T13:37:35;0.40;;;0.40;;
44516;SDS011;30223;17.182;-96.766;2023-10-31T13:40:03;0.30;;;0.30;;
44516;SDS011;30223;17.182;-96.766;2023-10-31T13:42:30;0.70;;;0.40;;
44516;SDS011;30223;17.182;-96.766;2023-10-31T13:44:57;0.40;;;0.40;;
44516;SDS011;30223;17.182;-96.766;2023-10-31T13:47:23;0.40;;;0.40;;
44516;SDS011;30223;17.182;-96.766;2023-10-31T13:49:50;0.40;;;0.40;;
44516;SDS011;30223;17.182;-96.766;2023-10-31T13:52:17;0.50;;;0.50;;
44516;SDS011;30223;17.182;-96.766;2023-10-31T13:54:44;0.30;;;0.30;;
44516;SDS011;30223;17.182;-96.766;2023-10-31T13:57:11;0.50;;;0.50;;
44516;SDS011;30223;17.182;-96.766;2023-10-31T13:59:39;0.90;;;0.40;;
44516;SDS011;30223;17.182;-96.766;2023-10-31T14:02:06;0.40;;;0.40;;
44516;SDS011;30223;17.182;-96.766;2023-10-31T14:04:33;0.50;;;0.30;;
44516;SDS011;30223;17.182;-96.766;2023-10-31T14:07:00;0.40;;;0.32;;
44516;SDS011;30223;17.182;-96.766;2023-10-31T14:09:27;0.40;;;0.40;;
44516;SDS011;30223;17.182;-96.766;2023-10-31T14:11:53;0.90;;;0.57;;
44516;SDS011;30223;17.182;-96.766;2023-10-31T14:14:20;0.47;;;0.40;;
44516;SDS011;30223;17.182;-96.766;2023-10-31T14:16:47;0.57;;;0.40;;
44516;SDS011;30223;17.182;-96.766;2023-10-31T14:19:14;0.52;;;0.40;;
44516;SDS011;30223;17.182;-96.766;2023-10-31T14:21:41;0.30;;;0.30;;
44516;SDS011;30223;17.182;-96.766;2023-10-31T14:24:09;0.40;;;0.40;;
44516;SDS011;30223;17.182;-96.766;2023-10-31T14:26:35;0.70;;;0.70;;
44516;SDS011;30223;17.182;-96.766;2023-10-31T14:29:04;0.45;;;0.32;;
44516;SDS011;30223;17.182;-96.766;2023-10-31T14:31:30;0.60;;;0.50;;
44516;SDS011;30223;17.182;-96.766;2023-10-31T14:33:57;0.50;;;0.50;;
44516;SDS011;30223;17.182;-96.766;2023-10-31T14:36:24;1.45;;;0.40;;